createdAt,value
2022-08-19T00:00:46.458Z,100546.80
2022-08-19T00:03:15.018Z,100548.88
2022-08-19T00:05:43.654Z,100555.30
2022-08-19T00:08:12.560Z,100560.81
2022-08-19T00:10:41.207Z,100555.75
2022-08-19T00:13:10.578Z,100561.98
2022-08-19T00:15:39.206Z,100562.59
2022-08-19T00:18:07.799Z,100558.26
2022-08-19T00:20:36.326Z,100556.77
2022-08-19T00:23:05.034Z,100553.70
2022-08-19T00:25:34.599Z,100549.90
2022-08-19T00:28:04.402Z,100549.21
2022-08-19T00:30:32.973Z,100548.56
2022-08-19T00:33:02.885Z,100552.65
2022-08-19T00:35:33.171Z,100549.59
2022-08-19T00:38:01.766Z,100551.20
2022-08-19T00:40:31.884Z,100550.30
2022-08-19T00:43:00.906Z,100557.29
2022-08-19T00:45:32.814Z,100558.51
2022-08-19T00:48:05.603Z,100559.87
2022-08-19T00:50:52.094Z,100558.97
2022-08-19T00:53:25.472Z,100557.02
2022-08-19T00:55:58.128Z,100554.75
2022-08-19T00:58:31.714Z,100549.75
2022-08-19T01:01:01.955Z,100544.59
2022-08-19T01:03:56.854Z,100544.25
2022-08-19T01:06:20.580Z,100537.30
2022-08-19T01:08:50.010Z,100534.23
2022-08-19T01:11:18.848Z,100530.68
2022-08-19T01:13:49.871Z,100532.49
2022-08-19T01:16:21.657Z,100534.52
2022-08-19T01:18:51.022Z,100532.88
2022-08-19T01:21:53.457Z,100539.91
2022-08-19T01:24:22.300Z,100542.33
2022-08-19T01:26:53.334Z,100536.11
2022-08-19T01:29:22.050Z,100538.43
2022-08-19T01:31:54.644Z,100539.15
2022-08-19T01:34:23.606Z,100536.27
2022-08-19T01:36:52.202Z,100534.30
2022-08-19T01:39:26.115Z,100531.23
2022-08-19T01:41:56.219Z,100533.21
2022-08-19T01:44:25.219Z,100534.23
2022-08-19T01:46:53.983Z,100541.27
2022-08-19T01:49:26.264Z,100538.89
2022-08-19T01:51:55.326Z,100542.30
2022-08-19T01:54:27.558Z,100536.52
2022-08-19T01:57:06.679Z,100537.72
2022-08-19T01:59:37.619Z,100536.44
2022-08-19T02:02:09.550Z,100533.85
2022-08-19T02:04:40.998Z,100534.65
2022-08-19T02:07:09.998Z,100529.21
2022-08-19T02:09:39.304Z,100527.46
2022-08-19T02:12:10.056Z,100521.43
2022-08-19T02:14:38.635Z,100518.45
2022-08-19T02:17:07.519Z,100516.92
2022-08-19T02:19:36.061Z,100516.04
2022-08-19T02:22:07.975Z,100518.48
2022-08-19T02:24:36.507Z,100522.45
2022-08-19T02:27:05.816Z,100525.39
2022-08-19T02:29:34.848Z,100527.52
2022-08-19T02:32:04.281Z,100532.84
2022-08-19T02:34:32.823Z,100540.96
2022-08-19T02:37:03.729Z,100548.34
2022-08-19T02:39:32.756Z,100546.07
2022-08-19T02:42:03.278Z,100548.95
2022-08-19T02:44:32.207Z,100548.15
2022-08-19T02:47:00.721Z,100545.10
2022-08-19T02:49:29.312Z,100543.69
2022-08-19T02:52:04.106Z,100548.37
2022-08-19T02:54:32.735Z,100546.20
2022-08-19T02:57:04.072Z,100548.42
2022-08-19T02:59:34.134Z,100548.30
2022-08-19T03:02:04.229Z,100545.22
2022-08-19T03:04:32.856Z,100548.09
2022-08-19T03:07:11.077Z,100552.51
2022-08-19T03:09:40.425Z,100550.68
2022-08-19T03:12:09.776Z,100544.44
2022-08-19T03:14:38.731Z,100544.31
2022-08-19T03:17:07.885Z,100546.72
2022-08-19T03:19:36.456Z,100548.88
2022-08-19T03:22:05.944Z,100556.45
2022-08-19T03:24:34.548Z,100563.21
2022-08-19T03:27:05.979Z,100565.45
2022-08-19T03:29:43.258Z,100565.45
2022-08-19T03:32:32.181Z,100567.52
2022-08-19T03:35:03.784Z,100574.86
2022-08-19T03:37:34.181Z,100583.05
2022-08-19T03:40:07.603Z,100587.48
2022-08-19T03:42:49.042Z,100593.08
2022-08-19T03:45:32.381Z,100604.96
2022-08-19T03:48:03.522Z,100608.98
2022-08-19T03:50:32.089Z,100608.05
2022-08-19T03:53:01.821Z,100613.84
2022-08-19T03:55:53.043Z,100613.20
2022-08-19T03:58:24.820Z,100618.24
2022-08-19T04:00:53.410Z,100624.45
2022-08-19T04:03:27.564Z,100626.20
2022-08-19T04:05:56.165Z,100628.80
2022-08-19T04:08:24.759Z,100630.04
2022-08-19T04:10:53.696Z,100632.80
2022-08-19T04:13:22.380Z,100638.77
2022-08-19T04:15:51.049Z,100638.90
2022-08-19T04:18:19.787Z,100638.45
2022-08-19T04:20:48.990Z,100636.50
2022-08-19T04:23:17.829Z,100637.79
2022-08-19T04:25:47.540Z,100639.46
2022-08-19T04:28:21.750Z,100643.48
2022-08-19T04:30:58.145Z,100645.90
2022-08-19T04:33:31.074Z,100650.77
2022-08-19T04:35:59.948Z,100652.27
2022-08-19T04:38:29.117Z,100657.25
2022-08-19T04:41:18.373Z,100655.68
2022-08-19T04:43:50.134Z,100652.24
2022-08-19T04:46:40.280Z,100646.94
2022-08-19T04:49:13.094Z,100640.11
2022-08-19T04:51:44.932Z,100635.85
2022-08-19T04:54:13.972Z,100639.88
2022-08-19T04:56:42.717Z,100641.27
2022-08-19T04:59:12.013Z,100644.31
2022-08-19T05:01:40.593Z,100647.88
2022-08-19T05:04:09.168Z,100648.48
2022-08-19T05:06:38.025Z,100641.08
2022-08-19T05:09:06.752Z,100636.77
2022-08-19T05:11:40.948Z,100635.88
2022-08-19T05:14:11.036Z,100637.41
2022-08-19T05:16:41.010Z,100628.13
2022-08-19T05:19:28.132Z,100625.48
2022-08-19T05:22:15.277Z,100627.79
2022-08-19T05:24:56.624Z,100629.80
2022-08-19T05:27:31.497Z,100634.08
2022-08-19T05:30:00.757Z,100639.88
2022-08-19T05:32:29.389Z,100638.84
2022-08-19T05:34:58.204Z,100644.83
2022-08-19T05:37:33.375Z,100645.54
2022-08-19T05:40:52.627Z,100642.55
2022-08-19T05:43:21.395Z,100639.61
2022-08-19T05:45:57.281Z,100635.93
2022-08-19T05:48:25.945Z,100635.30
2022-08-19T05:51:11.450Z,100637.05
2022-08-19T05:53:42.182Z,100643.41
2022-08-19T05:56:18.746Z,100644.00
2022-08-19T05:58:47.349Z,100645.48
2022-08-19T06:01:27.398Z,100646.30
2022-08-19T06:03:58.623Z,100648.15
2022-08-19T06:06:27.283Z,100647.10
2022-08-19T06:09:04.863Z,100645.80
2022-08-19T06:11:42.683Z,100642.77
2022-08-19T06:14:32.277Z,100645.27
2022-08-19T06:17:19.906Z,100647.54
2022-08-19T06:19:48.653Z,100644.18
2022-08-19T06:22:25.445Z,100641.36
2022-08-19T06:24:59.833Z,100630.17
2022-08-19T06:28:11.393Z,100625.86
2022-08-19T06:30:51.904Z,100628.21
2022-08-19T06:33:28.468Z,100637.78
2022-08-19T06:36:02.016Z,100636.11
2022-08-19T06:38:30.862Z,100638.08
2022-08-19T06:41:07.515Z,100636.17
2022-08-19T06:43:45.460Z,100636.80
2022-08-19T06:46:16.960Z,100637.94
2022-08-19T06:48:46.712Z,100639.85
2022-08-19T06:51:43.693Z,100644.23
2022-08-19T06:54:30.709Z,100640.68
2022-08-19T06:57:39.221Z,100644.37
2022-08-19T07:00:21.050Z,100643.06
2022-08-19T07:03:03.029Z,100640.04
2022-08-19T07:05:36.392Z,100638.68
2022-08-19T07:08:23.904Z,100637.08
2022-08-19T07:11:12.552Z,100635.89
2022-08-19T07:13:52.247Z,100634.21
2022-08-19T07:16:29.169Z,100634.27
2022-08-19T07:22:32.265Z,100635.98
2022-08-19T07:25:06.301Z,100640.22
2022-08-19T07:27:39.821Z,100635.45
2022-08-19T07:30:18.092Z,100640.81
2022-08-19T07:32:46.656Z,100640.39
2022-08-19T07:35:24.779Z,100639.67
2022-08-19T07:37:54.191Z,100643.14
2022-08-19T07:40:23.009Z,100641.66
2022-08-19T07:42:59.217Z,100642.07
2022-08-19T07:45:30.524Z,100648.80
2022-08-19T07:47:59.926Z,100642.67
2022-08-19T07:50:30.201Z,100643.36
2022-08-19T07:52:58.839Z,100642.80
2022-08-19T07:55:42.171Z,100642.42
2022-08-19T07:58:21.967Z,100640.88
2022-08-19T08:01:36.215Z,100638.00
2022-08-19T08:04:32.043Z,100641.31
2022-08-19T08:07:22.670Z,100638.27
2022-08-19T08:09:52.896Z,100640.14
2022-08-19T08:12:34.802Z,100644.25
2022-08-19T08:15:08.977Z,100637.25
2022-08-19T08:17:49.443Z,100638.93
2022-08-19T08:20:20.570Z,100641.11
2022-08-19T08:23:07.653Z,100637.42
2022-08-19T08:25:37.906Z,100643.65
2022-08-19T08:28:08.619Z,100642.08
2022-08-19T08:30:45.026Z,100638.44
2022-08-19T08:33:33.124Z,100634.63
2022-08-19T08:36:06.196Z,100628.95
2022-08-19T08:38:43.022Z,100624.18
2022-08-19T08:41:46.293Z,100615.54
2022-08-19T08:47:36.727Z,100602.92
2022-08-19T08:50:20.505Z,100603.58
2022-08-19T08:52:56.250Z,100594.97
2022-08-19T08:55:36.948Z,100589.26
2022-08-19T08:58:17.403Z,100597.89
2022-08-19T09:00:49.384Z,100608.92
2022-08-19T09:03:23.992Z,100609.77
2022-08-19T09:06:12.006Z,100606.09
2022-08-19T09:09:15.078Z,100599.07
2022-08-19T09:12:04.005Z,100600.92
2022-08-19T09:15:01.573Z,100600.41
2022-08-19T09:17:34.520Z,100607.16
2022-08-19T09:20:09.936Z,100602.16
2022-08-19T09:22:40.437Z,100598.09
2022-08-19T09:25:11.785Z,100593.59
2022-08-19T09:27:43.611Z,100599.98
2022-08-19T09:30:19.183Z,100596.99
2022-08-19T09:32:52.835Z,100605.95
2022-08-19T09:35:26.592Z,100606.24
2022-08-19T09:37:59.929Z,100601.95
2022-08-19T09:40:30.943Z,100596.68
2022-08-19T09:43:09.905Z,100600.12
2022-08-19T09:45:41.768Z,100598.40
2022-08-19T09:48:11.687Z,100595.95
2022-08-19T09:50:51.853Z,100597.00
2022-08-19T09:53:25.647Z,100606.76
2022-08-19T09:55:56.869Z,100599.10
2022-08-19T09:58:28.832Z,100600.08
2022-08-19T10:00:59.770Z,100609.94
2022-08-19T10:03:31.366Z,100602.06
2022-08-19T10:06:02.671Z,100609.13
2022-08-19T10:08:37.678Z,100604.40
2022-08-19T10:11:27.167Z,100611.33
2022-08-19T10:13:55.321Z,100601.60
2022-08-19T10:16:26.144Z,100590.90
2022-08-19T10:19:00.643Z,100602.51
2022-08-19T10:21:35.524Z,100596.44
2022-08-19T10:24:06.471Z,100584.77
2022-08-19T10:26:48.531Z,100585.97
2022-08-19T10:29:32.124Z,100585.73
2022-08-19T10:32:04.423Z,100585.36
2022-08-19T10:34:33.218Z,100593.60
2022-08-19T10:37:02.274Z,100584.67
2022-08-19T10:39:43.032Z,100578.02
2022-08-19T10:42:14.374Z,100587.61
2022-08-19T10:44:43.860Z,100584.06
2022-08-19T10:47:21.854Z,100578.48
2022-08-19T10:50:14.511Z,100575.61
2022-08-19T10:52:50.612Z,100580.16
2022-08-19T10:55:43.151Z,100583.33
2022-08-19T10:58:18.961Z,100572.77
2022-08-19T11:00:55.327Z,100565.94
2022-08-19T11:03:25.254Z,100579.42
2022-08-19T11:06:09.814Z,100567.02
2022-08-19T11:08:39.608Z,100568.55
2022-08-19T11:11:09.180Z,100567.30
2022-08-19T11:13:41.598Z,100557.08
2022-08-19T11:16:20.563Z,100560.02
2022-08-19T11:18:53.950Z,100571.07
2022-08-19T11:21:34.758Z,100559.08
2022-08-19T11:24:08.986Z,100562.73
2022-08-19T11:26:39.572Z,100555.56
2022-08-19T11:29:14.137Z,100552.84
2022-08-19T11:31:48.292Z,100550.33
2022-08-19T11:34:23.989Z,100554.20
2022-08-19T11:36:52.994Z,100543.86
2022-08-19T11:39:23.713Z,100543.95
2022-08-19T11:41:52.489Z,100541.30
2022-08-19T11:44:21.172Z,100537.73
2022-08-19T11:46:49.849Z,100534.84
2022-08-19T11:49:20.872Z,100535.62
2022-08-19T11:51:51.768Z,100527.36
2022-08-19T11:54:22.490Z,100530.38
2022-08-19T11:56:51.133Z,100526.50
2022-08-19T11:59:20.080Z,100523.50
2022-08-19T12:01:48.613Z,100521.06
2022-08-19T12:04:17.196Z,100526.77
2022-08-19T12:06:47.201Z,100522.05
2022-08-19T12:09:16.654Z,100531.09
2022-08-19T12:11:45.329Z,100523.48
2022-08-19T12:14:15.278Z,100513.29
2022-08-19T12:16:49.135Z,100510.61
2022-08-19T12:19:22.282Z,100515.24
2022-08-19T12:21:56.507Z,100514.49
2022-08-19T12:24:26.194Z,100504.66
2022-08-19T12:26:56.560Z,100510.15
2022-08-19T12:29:30.760Z,100498.73
2022-08-19T12:32:01.615Z,100495.80
2022-08-19T12:34:31.450Z,100491.94
2022-08-19T12:37:03.944Z,100493.66
2022-08-19T12:39:40.792Z,100497.84
2022-08-19T12:42:12.923Z,100493.80
2022-08-19T12:44:43.702Z,100485.56
2022-08-19T12:47:15.396Z,100484.20
2022-08-19T12:49:54.438Z,100483.40
2022-08-19T12:52:28.416Z,100485.48
2022-08-19T12:54:58.411Z,100485.64
2022-08-19T12:57:31.952Z,100478.10
2022-08-19T13:00:11.974Z,100478.71
2022-08-19T13:02:42.741Z,100481.91
2022-08-19T13:05:15.074Z,100488.69
2022-08-19T13:07:52.185Z,100492.77
2022-08-19T13:10:22.056Z,100486.95
2022-08-19T13:12:52.722Z,100487.98
2022-08-19T13:15:29.733Z,100484.71
2022-08-19T13:18:00.495Z,100486.16
2022-08-19T13:20:30.095Z,100488.66
2022-08-19T13:22:58.890Z,100485.91
2022-08-19T13:25:28.483Z,100485.97
2022-08-19T13:27:57.199Z,100485.05
2022-08-19T13:30:44.708Z,100480.36
2022-08-19T13:33:17.394Z,100474.63
2022-08-19T13:35:50.323Z,100474.28
2022-08-19T13:38:22.952Z,100475.43
2022-08-19T13:41:16.203Z,100475.25
2022-08-19T13:43:56.127Z,100472.73
2022-08-19T13:47:19.508Z,100473.91
2022-08-19T13:49:56.950Z,100471.98
2022-08-19T13:52:26.722Z,100472.02
2022-08-19T13:54:57.985Z,100473.73
2022-08-19T13:57:27.143Z,100475.55
2022-08-19T14:00:36.347Z,100476.89
2022-08-19T14:03:09.312Z,100475.04
2022-08-19T14:05:38.869Z,100471.04
2022-08-19T14:08:08.889Z,100470.73
2022-08-19T14:10:38.228Z,100466.59
2022-08-19T14:13:06.924Z,100461.67
2022-08-19T14:15:40.712Z,100463.30
2022-08-19T14:18:09.892Z,100466.52
2022-08-19T14:20:38.851Z,100462.95
2022-08-19T14:23:07.941Z,100465.02
2022-08-19T14:25:36.897Z,100458.06
2022-08-19T14:28:06.355Z,100460.72
2022-08-19T14:30:38.842Z,100459.64
2022-08-19T14:33:08.552Z,100462.52
2022-08-19T14:35:39.013Z,100458.81
2022-08-19T14:38:31.176Z,100459.41
2022-08-19T14:41:38.870Z,100460.80
2022-08-19T14:47:46.190Z,100456.36
2022-08-19T14:50:17.927Z,100456.34
2022-08-19T14:52:49.855Z,100452.83
2022-08-19T15:27:40.124Z,100435.55
2022-08-19T15:30:20.553Z,100433.00
2022-08-19T15:33:37.264Z,100435.46
2022-08-19T15:36:08.295Z,100441.44
2022-08-19T15:38:43.174Z,100441.63
2022-08-19T15:41:32.030Z,100441.04
2022-08-19T15:47:53.328Z,100440.18
2022-08-19T15:53:45.570Z,100440.95
2022-08-19T15:56:16.249Z,100439.14
2022-08-19T16:00:08.125Z,100440.14
2022-08-19T16:03:17.069Z,100445.16
2022-08-19T16:06:20.258Z,100447.86
2022-08-19T16:08:50.461Z,100455.81
2022-08-19T16:11:23.337Z,100452.75
2022-08-19T16:13:55.158Z,100453.98
2022-08-19T16:16:34.191Z,100454.70
2022-08-19T16:19:10.636Z,100453.86
2022-08-19T16:29:00.631Z,100462.86
2022-08-19T16:31:30.209Z,100469.04
2022-08-19T16:33:59.156Z,100474.70
2022-08-19T16:36:28.827Z,100476.95
2022-08-19T20:44:16.639Z,100571.43
2022-08-19T20:47:46.837Z,100574.61
2022-08-19T20:50:47.059Z,100575.50
2022-08-19T20:53:20.948Z,100577.12
2022-08-19T20:55:54.140Z,100577.28
2022-08-19T20:58:59.737Z,100576.19
2022-08-19T21:01:36.170Z,100574.09
2022-08-19T21:04:04.915Z,100575.50
2022-08-19T21:06:33.760Z,100572.86
2022-08-19T21:09:03.048Z,100575.58
2022-08-19T21:11:32.437Z,100574.80
2022-08-19T21:14:01.280Z,100579.80
2022-08-19T21:16:32.753Z,100580.35
2022-08-19T21:19:02.459Z,100587.62
2022-08-19T21:21:31.744Z,100592.56
2022-08-19T21:24:03.244Z,100592.23
2022-08-19T21:26:35.410Z,100588.80
2022-08-19T21:29:18.007Z,100591.87
2022-08-19T21:32:14.624Z,100593.92
2022-08-19T21:34:47.237Z,100589.77
2022-08-19T21:37:24.735Z,100586.80
2022-08-19T21:39:55.382Z,100593.11
2022-08-19T21:42:24.810Z,100593.26
2022-08-19T21:45:05.285Z,100587.59
2022-08-19T21:47:34.024Z,100592.25
2022-08-19T21:50:28.890Z,100577.29
2022-08-19T21:53:11.294Z,100593.53
2022-08-19T21:55:42.896Z,100585.02
2022-08-19T21:58:37.186Z,100593.31
2022-08-19T22:01:15.383Z,100593.56
2022-08-19T22:03:46.699Z,100594.48
2022-08-19T22:06:19.681Z,100593.48
2022-08-19T22:09:00.348Z,100585.61
2022-08-19T22:11:46.160Z,100591.66
2022-08-19T22:15:00.458Z,100591.40
2022-08-19T22:17:41.090Z,100588.76
2022-08-19T22:20:23.183Z,100583.52
2022-08-19T22:22:58.847Z,100586.23
2022-08-19T22:25:38.749Z,100586.64
2022-08-19T22:28:12.274Z,100581.95
2022-08-19T22:30:55.402Z,100574.91
2022-08-19T22:33:39.578Z,100584.84
2022-08-19T22:36:23.039Z,100583.18
2022-08-19T22:38:54.496Z,100583.23
2022-08-19T22:41:33.395Z,100579.20
2022-08-19T22:44:09.892Z,100579.50
2022-08-19T22:46:50.574Z,100570.74
2022-08-19T22:49:26.059Z,100570.33
2022-08-19T22:52:20.495Z,100569.09
2022-08-19T22:55:01.059Z,100574.16
2022-08-19T22:57:30.611Z,100573.23
2022-08-19T23:00:01.238Z,100575.64
2022-08-19T23:02:52.198Z,100574.80
2022-08-19T23:05:29.304Z,100576.65
2022-08-19T23:08:23.889Z,100578.98
2022-08-19T23:11:17.631Z,100581.21
2022-08-19T23:13:50.042Z,100584.80
2022-08-19T23:16:18.678Z,100584.25
2022-08-19T23:19:04.429Z,100586.20
2022-08-19T23:22:30.759Z,100579.86
2022-08-19T23:25:07.197Z,100579.64
2022-08-19T23:31:21.748Z,100590.43
2022-08-19T23:33:54.078Z,100594.17
2022-08-19T23:36:23.131Z,100581.24
2022-08-19T23:39:30.111Z,100599.41
2022-08-19T23:41:59.801Z,100601.84
2022-08-19T23:45:05.257Z,100601.79
2022-08-19T23:47:59.758Z,100603.45
2022-08-19T23:50:42.725Z,100604.58
2022-08-19T23:53:13.249Z,100610.83
2022-08-19T23:55:57.576Z,100611.88
2022-08-19T23:58:30.032Z,100606.49
